sensor_id;sensor_type;location;lat;lon;timestamp;P1;durP1;ratioP1;P2;durP2;ratioP2
28848;SDS011;15981;43.292;-2.888;2022-11-15T00:01:47;1.00;;;0.90;;
28848;SDS011;15981;43.292;-2.888;2022-11-15T00:04:13;0.77;;;0.77;;
28848;SDS011;15981;43.292;-2.888;2022-11-15T00:06:39;0.93;;;0.80;;
28848;SDS011;15981;43.292;-2.888;2022-11-15T00:09:05;0.65;;;0.50;;
28848;SDS011;15981;43.292;-2.888;2022-11-15T00:11:30;1.35;;;0.80;;
28848;SDS011;15981;43.292;-2.888;2022-11-15T00:13:56;0.95;;;0.73;;
28848;SDS011;15981;43.292;-2.888;2022-11-15T00:16:22;0.93;;;0.80;;
28848;SDS011;15981;43.292;-2.888;2022-11-15T00:18:48;1.48;;;0.60;;
28848;SDS011;15981;43.292;-2.888;2022-11-15T00:21:14;0.77;;;0.70;;
28848;SDS011;15981;43.292;-2.888;2022-11-15T00:23:40;1.20;;;0.70;;
28848;SDS011;15981;43.292;-2.888;2022-11-15T00:26:06;1.10;;;0.70;;
28848;SDS011;15981;43.292;-2.888;2022-11-15T00:28:32;1.75;;;0.85;;
28848;SDS011;15981;43.292;-2.888;2022-11-15T00:31:01;1.95;;;0.70;;
28848;SDS011;15981;43.292;-2.888;2022-11-15T00:33:27;1.17;;;0.60;;
28848;SDS011;15981;43.292;-2.888;2022-11-15T00:35:53;1.63;;;0.60;;
28848;SDS011;15981;43.292;-2.888;2022-11-15T00:38:18;2.38;;;0.60;;
28848;SDS011;15981;43.292;-2.888;2022-11-15T00:40:44;0.85;;;0.80;;
28848;SDS011;15981;43.292;-2.888;2022-11-15T00:43:10;2.15;;;0.80;;
28848;SDS011;15981;43.292;-2.888;2022-11-15T00:45:36;0.95;;;0.50;;
28848;SDS011;15981;43.292;-2.888;2022-11-15T00:48:01;1.48;;;0.70;;
28848;SDS011;15981;43.292;-2.888;2022-11-15T00:50:27;1.42;;;0.70;;
28848;SDS011;15981;43.292;-2.888;2022-11-15T00:52:53;1.23;;;0.70;;
28848;SDS011;15981;43.292;-2.888;2022-11-15T00:55:18;1.15;;;0.70;;
28848;SDS011;15981;43.292;-2.888;2022-11-15T00:57:45;1.20;;;0.70;;
28848;SDS011;15981;43.292;-2.888;2022-11-15T01:00:11;1.42;;;0.90;;
28848;SDS011;15981;43.292;-2.888;2022-11-15T01:02:37;0.70;;;0.68;;
28848;SDS011;15981;43.292;-2.888;2022-11-15T01:05:03;1.42;;;0.80;;
28848;SDS011;15981;43.292;-2.888;2022-11-15T01:07:28;0.77;;;0.70;;
28848;SDS011;15981;43.292;-2.888;2022-11-15T01:09:54;1.83;;;0.80;;
28848;SDS011;15981;43.292;-2.888;2022-11-15T01:12:20;1.15;;;0.88;;
28848;SDS011;15981;43.292;-2.888;2022-11-15T01:14:45;1.98;;;0.70;;
28848;SDS011;15981;43.292;-2.888;2022-11-15T01:17:11;1.52;;;0.70;;
28848;SDS011;15981;43.292;-2.888;2022-11-15T01:19:37;1.25;;;0.85;;
28848;SDS011;15981;43.292;-2.888;2022-11-15T01:22:03;0.70;;;0.70;;
28848;SDS011;15981;43.292;-2.888;2022-11-15T01:24:28;2.45;;;1.20;;
28848;SDS011;15981;43.292;-2.888;2022-11-15T01:26:54;1.23;;;0.82;;
28848;SDS011;15981;43.292;-2.888;2022-11-15T01:29:20;1.65;;;0.90;;
28848;SDS011;15981;43.292;-2.888;2022-11-15T01:31:45;1.30;;;0.80;;
28848;SDS011;15981;43.292;-2.888;2022-11-15T01:34:11;1.60;;;0.80;;
28848;SDS011;15981;43.292;-2.888;2022-11-15T01:36:37;1.35;;;0.85;;
28848;SDS011;15981;43.292;-2.888;2022-11-15T01:39:03;0.70;;;0.60;;
28848;SDS011;15981;43.292;-2.888;2022-11-15T01:41:30;1.48;;;0.80;;
28848;SDS011;15981;43.292;-2.888;2022-11-15T01:43:56;1.40;;;0.75;;
28848;SDS011;15981;43.292;-2.888;2022-11-15T01:46:29;0.77;;;0.68;;
28848;SDS011;15981;43.292;-2.888;2022-11-15T01:48:57;0.98;;;0.70;;
28848;SDS011;15981;43.292;-2.888;2022-11-15T01:51:25;0.90;;;0.63;;
28848;SDS011;15981;43.292;-2.888;2022-11-15T01:53:52;1.42;;;0.80;;
28848;SDS011;15981;43.292;-2.888;2022-11-15T01:56:21;0.70;;;0.70;;
28848;SDS011;15981;43.292;-2.888;2022-11-15T01:58:48;0.95;;;0.70;;
28848;SDS011;15981;43.292;-2.888;2022-11-15T02:01:15;1.20;;;0.77;;
28848;SDS011;15981;43.292;-2.888;2022-11-15T02:06:12;0.85;;;0.68;;
28848;SDS011;15981;43.292;-2.888;2022-11-15T02:08:38;0.75;;;0.60;;
28848;SDS011;15981;43.292;-2.888;2022-11-15T02:11:07;1.20;;;0.70;;
28848;SDS011;15981;43.292;-2.888;2022-11-15T02:13:33;1.88;;;1.38;;
28848;SDS011;15981;43.292;-2.888;2022-11-15T02:16:02;0.75;;;0.60;;
28848;SDS011;15981;43.292;-2.888;2022-11-15T02:18:32;2.53;;;0.82;;
28848;SDS011;15981;43.292;-2.888;2022-11-15T02:21:14;0.88;;;0.88;;
28848;SDS011;15981;43.292;-2.888;2022-11-15T02:41:54;1.80;;;0.70;;
28848;SDS011;15981;43.292;-2.888;2022-11-15T02:46:55;0.90;;;0.73;;
28848;SDS011;15981;43.292;-2.888;2022-11-15T02:52:08;2.30;;;0.70;;
28848;SDS011;15981;43.292;-2.888;2022-11-15T02:54:34;1.95;;;0.70;;
28848;SDS011;15981;43.292;-2.888;2022-11-15T02:57:04;1.42;;;0.82;;
28848;SDS011;15981;43.292;-2.888;2022-11-15T03:07:18;1.58;;;0.80;;
28848;SDS011;15981;43.292;-2.888;2022-11-15T03:09:56;0.52;;;0.52;;
28848;SDS011;15981;43.292;-2.888;2022-11-15T03:19:56;1.10;;;0.68;;
28848;SDS011;15981;43.292;-2.888;2022-11-15T03:22:23;1.27;;;0.57;;
28848;SDS011;15981;43.292;-2.888;2022-11-15T03:24:51;1.27;;;0.50;;
28848;SDS011;15981;43.292;-2.888;2022-11-15T03:27:19;1.85;;;0.60;;
28848;SDS011;15981;43.292;-2.888;2022-11-15T03:29:48;1.50;;;0.80;;
28848;SDS011;15981;43.292;-2.888;2022-11-15T03:32:16;0.65;;;0.60;;
28848;SDS011;15981;43.292;-2.888;2022-11-15T03:34:45;0.75;;;0.63;;
28848;SDS011;15981;43.292;-2.888;2022-11-15T03:37:13;1.05;;;0.50;;
28848;SDS011;15981;43.292;-2.888;2022-11-15T03:39:39;0.90;;;0.50;;
28848;SDS011;15981;43.292;-2.888;2022-11-15T03:47:24;1.77;;;0.88;;
28848;SDS011;15981;43.292;-2.888;2022-11-15T03:49:55;1.33;;;0.65;;
28848;SDS011;15981;43.292;-2.888;2022-11-15T03:52:23;0.75;;;0.47;;
28848;SDS011;15981;43.292;-2.888;2022-11-15T03:54:53;1.08;;;0.60;;
28848;SDS011;15981;43.292;-2.888;2022-11-15T03:57:19;1.30;;;0.50;;
28848;SDS011;15981;43.292;-2.888;2022-11-15T03:59:44;0.68;;;0.40;;
28848;SDS011;15981;43.292;-2.888;2022-11-15T04:02:11;0.40;;;0.40;;
28848;SDS011;15981;43.292;-2.888;2022-11-15T04:04:37;0.65;;;0.60;;
28848;SDS011;15981;43.292;-2.888;2022-11-15T04:07:02;0.40;;;0.40;;
28848;SDS011;15981;43.292;-2.888;2022-11-15T04:09:28;0.60;;;0.50;;
28848;SDS011;15981;43.292;-2.888;2022-11-15T04:11:54;0.85;;;0.70;;
28848;SDS011;15981;43.292;-2.888;2022-11-15T04:14:19;1.27;;;0.50;;
28848;SDS011;15981;43.292;-2.888;2022-11-15T04:16:45;0.32;;;0.32;;
28848;SDS011;15981;43.292;-2.888;2022-11-15T04:19:11;0.40;;;0.40;;
28848;SDS011;15981;43.292;-2.888;2022-11-15T04:21:55;0.60;;;0.47;;
28848;SDS011;15981;43.292;-2.888;2022-11-15T04:24:39;0.85;;;0.60;;
28848;SDS011;15981;43.292;-2.888;2022-11-15T04:27:05;0.65;;;0.40;;
28848;SDS011;15981;43.292;-2.888;2022-11-15T04:29:31;1.27;;;0.60;;
28848;SDS011;15981;43.292;-2.888;2022-11-15T04:32:00;0.60;;;0.40;;
28848;SDS011;15981;43.292;-2.888;2022-11-15T04:34:25;0.90;;;0.50;;
28848;SDS011;15981;43.292;-2.888;2022-11-15T04:36:51;0.80;;;0.40;;
28848;SDS011;15981;43.292;-2.888;2022-11-15T04:39:35;1.05;;;0.50;;
28848;SDS011;15981;43.292;-2.888;2022-11-15T04:42:01;0.40;;;0.40;;
28848;SDS011;15981;43.292;-2.888;2022-11-15T04:44:27;0.80;;;0.60;;
28848;SDS011;15981;43.292;-2.888;2022-11-15T04:46:52;0.88;;;0.38;;
28848;SDS011;15981;43.292;-2.888;2022-11-15T04:49:18;0.57;;;0.50;;
28848;SDS011;15981;43.292;-2.888;2022-11-15T04:51:44;0.30;;;0.30;;
28848;SDS011;15981;43.292;-2.888;2022-11-15T04:54:09;1.05;;;0.50;;
28848;SDS011;15981;43.292;-2.888;2022-11-15T04:56:35;1.05;;;0.50;;
28848;SDS011;15981;43.292;-2.888;2022-11-15T04:59:01;0.52;;;0.50;;
28848;SDS011;15981;43.292;-2.888;2022-11-15T05:01:27;0.30;;;0.30;;
28848;SDS011;15981;43.292;-2.888;2022-11-15T05:03:52;0.38;;;0.38;;
28848;SDS011;15981;43.292;-2.888;2022-11-15T05:06:36;0.52;;;0.40;;
28848;SDS011;15981;43.292;-2.888;2022-11-15T05:09:02;0.50;;;0.40;;
28848;SDS011;15981;43.292;-2.888;2022-11-15T05:11:28;0.40;;;0.40;;
28848;SDS011;15981;43.292;-2.888;2022-11-15T05:13:53;0.30;;;0.30;;
28848;SDS011;15981;43.292;-2.888;2022-11-15T05:16:19;1.30;;;0.40;;
28848;SDS011;15981;43.292;-2.888;2022-11-15T05:18:45;0.50;;;0.30;;
28848;SDS011;15981;43.292;-2.888;2022-11-15T05:21:12;0.35;;;0.35;;
28848;SDS011;15981;43.292;-2.888;2022-11-15T05:23:38;0.40;;;0.30;;
28848;SDS011;15981;43.292;-2.888;2022-11-15T05:26:05;0.30;;;0.30;;
28848;SDS011;15981;43.292;-2.888;2022-11-15T05:28:31;0.30;;;0.30;;
28848;SDS011;15981;43.292;-2.888;2022-11-15T05:31:06;0.30;;;0.30;;
28848;SDS011;15981;43.292;-2.888;2022-11-15T05:33:32;0.30;;;0.30;;
28848;SDS011;15981;43.292;-2.888;2022-11-15T05:36:00;0.65;;;0.40;;
28848;SDS011;15981;43.292;-2.888;2022-11-15T05:38:26;0.88;;;0.40;;
28848;SDS011;15981;43.292;-2.888;2022-11-15T05:40:52;0.38;;;0.30;;
28848;SDS011;15981;43.292;-2.888;2022-11-15T05:43:18;0.40;;;0.25;;
28848;SDS011;15981;43.292;-2.888;2022-11-15T05:45:43;0.30;;;0.30;;
28848;SDS011;15981;43.292;-2.888;2022-11-15T05:48:09;0.73;;;0.40;;
28848;SDS011;15981;43.292;-2.888;2022-11-15T05:50:36;0.30;;;0.30;;
28848;SDS011;15981;43.292;-2.888;2022-11-15T05:53:04;0.38;;;0.32;;
28848;SDS011;15981;43.292;-2.888;2022-11-15T05:55:30;0.47;;;0.47;;
28848;SDS011;15981;43.292;-2.888;2022-11-15T05:57:56;0.30;;;0.30;;
28848;SDS011;15981;43.292;-2.888;2022-11-15T06:00:21;0.30;;;0.30;;
28848;SDS011;15981;43.292;-2.888;2022-11-15T06:02:47;0.50;;;0.40;;
28848;SDS011;15981;43.292;-2.888;2022-11-15T06:05:13;0.38;;;0.38;;
28848;SDS011;15981;43.292;-2.888;2022-11-15T06:07:39;0.40;;;0.40;;
28848;SDS011;15981;43.292;-2.888;2022-11-15T06:10:05;0.60;;;0.40;;
28848;SDS011;15981;43.292;-2.888;2022-11-15T06:12:30;0.30;;;0.30;;
28848;SDS011;15981;43.292;-2.888;2022-11-15T06:14:56;0.38;;;0.30;;
28848;SDS011;15981;43.292;-2.888;2022-11-15T06:17:22;0.40;;;0.40;;
28848;SDS011;15981;43.292;-2.888;2022-11-15T06:19:47;1.27;;;0.20;;
28848;SDS011;15981;43.292;-2.888;2022-11-15T06:22:13;0.43;;;0.40;;
28848;SDS011;15981;43.292;-2.888;2022-11-15T06:24:39;1.23;;;0.43;;
28848;SDS011;15981;43.292;-2.888;2022-11-15T06:27:05;0.50;;;0.50;;
28848;SDS011;15981;43.292;-2.888;2022-11-15T06:29:30;0.65;;;0.30;;
28848;SDS011;15981;43.292;-2.888;2022-11-15T06:31:56;0.40;;;0.40;;
28848;SDS011;15981;43.292;-2.888;2022-11-15T06:34:22;0.50;;;0.30;;
28848;SDS011;15981;43.292;-2.888;2022-11-15T06:36:47;0.20;;;0.20;;
28848;SDS011;15981;43.292;-2.888;2022-11-15T06:39:13;0.30;;;0.30;;
28848;SDS011;15981;43.292;-2.888;2022-11-15T06:41:39;0.40;;;0.40;;
28848;SDS011;15981;43.292;-2.888;2022-11-15T06:44:04;1.58;;;0.30;;
28848;SDS011;15981;43.292;-2.888;2022-11-15T06:46:30;0.38;;;0.38;;
28848;SDS011;15981;43.292;-2.888;2022-11-15T06:48:56;0.40;;;0.40;;
28848;SDS011;15981;43.292;-2.888;2022-11-15T06:51:21;1.38;;;0.40;;
28848;SDS011;15981;43.292;-2.888;2022-11-15T06:53:47;0.38;;;0.20;;
28848;SDS011;15981;43.292;-2.888;2022-11-15T06:56:13;0.30;;;0.30;;
28848;SDS011;15981;43.292;-2.888;2022-11-15T06:58:38;0.25;;;0.22;;
28848;SDS011;15981;43.292;-2.888;2022-11-15T07:01:05;0.50;;;0.50;;
28848;SDS011;15981;43.292;-2.888;2022-11-15T07:03:33;0.32;;;0.30;;
28848;SDS011;15981;43.292;-2.888;2022-11-15T07:05:59;1.25;;;0.20;;
28848;SDS011;15981;43.292;-2.888;2022-11-15T07:08:26;0.65;;;0.32;;
28848;SDS011;15981;43.292;-2.888;2022-11-15T07:10:53;0.30;;;0.30;;
28848;SDS011;15981;43.292;-2.888;2022-11-15T07:13:19;1.48;;;0.45;;
28848;SDS011;15981;43.292;-2.888;2022-11-15T07:15:45;1.38;;;0.40;;
28848;SDS011;15981;43.292;-2.888;2022-11-15T07:18:11;0.57;;;0.43;;
28848;SDS011;15981;43.292;-2.888;2022-11-15T07:20:36;1.27;;;0.28;;
28848;SDS011;15981;43.292;-2.888;2022-11-15T07:23:03;1.98;;;0.40;;
28848;SDS011;15981;43.292;-2.888;2022-11-15T07:25:29;0.35;;;0.35;;
28848;SDS011;15981;43.292;-2.888;2022-11-15T07:27:55;0.85;;;0.30;;
28848;SDS011;15981;43.292;-2.888;2022-11-15T07:30:21;0.30;;;0.30;;
28848;SDS011;15981;43.292;-2.888;2022-11-15T07:32:47;0.77;;;0.30;;
28848;SDS011;15981;43.292;-2.888;2022-11-15T07:35:13;0.43;;;0.40;;
28848;SDS011;15981;43.292;-2.888;2022-11-15T07:37:38;1.60;;;0.45;;
28848;SDS011;15981;43.292;-2.888;2022-11-15T07:40:04;0.73;;;0.45;;
28848;SDS011;15981;43.292;-2.888;2022-11-15T07:42:31;1.17;;;0.50;;
28848;SDS011;15981;43.292;-2.888;2022-11-15T07:45:15;0.88;;;0.30;;
28848;SDS011;15981;43.292;-2.888;2022-11-15T07:47:40;0.73;;;0.45;;
28848;SDS011;15981;43.292;-2.888;2022-11-15T07:50:10;1.02;;;0.30;;
28848;SDS011;15981;43.292;-2.888;2022-11-15T07:52:36;1.67;;;0.30;;
28848;SDS011;15981;43.292;-2.888;2022-11-15T07:55:02;0.30;;;0.30;;
28848;SDS011;15981;43.292;-2.888;2022-11-15T07:57:28;0.35;;;0.35;;
28848;SDS011;15981;43.292;-2.888;2022-11-15T07:59:54;0.90;;;0.30;;
28848;SDS011;15981;43.292;-2.888;2022-11-15T08:02:20;0.40;;;0.40;;
28848;SDS011;15981;43.292;-2.888;2022-11-15T08:04:46;0.55;;;0.30;;
28848;SDS011;15981;43.292;-2.888;2022-11-15T08:07:12;0.75;;;0.30;;
28848;SDS011;15981;43.292;-2.888;2022-11-15T08:09:38;0.40;;;0.40;;
28848;SDS011;15981;43.292;-2.888;2022-11-15T08:12:04;1.38;;;0.47;;
28848;SDS011;15981;43.292;-2.888;2022-11-15T08:14:30;0.40;;;0.40;;
28848;SDS011;15981;43.292;-2.888;2022-11-15T08:16:55;0.90;;;0.50;;
28848;SDS011;15981;43.292;-2.888;2022-11-15T08:19:21;1.02;;;0.50;;
28848;SDS011;15981;43.292;-2.888;2022-11-15T08:21:47;0.45;;;0.45;;
28848;SDS011;15981;43.292;-2.888;2022-11-15T08:24:13;0.75;;;0.40;;
28848;SDS011;15981;43.292;-2.888;2022-11-15T08:26:38;0.40;;;0.40;;
28848;SDS011;15981;43.292;-2.888;2022-11-15T08:29:05;2.15;;;1.10;;
28848;SDS011;15981;43.292;-2.888;2022-11-15T08:31:31;2.92;;;1.00;;
28848;SDS011;15981;43.292;-2.888;2022-11-15T08:33:56;2.92;;;1.13;;
28848;SDS011;15981;43.292;-2.888;2022-11-15T08:36:22;2.65;;;1.05;;
28848;SDS011;15981;43.292;-2.888;2022-11-15T08:38:48;1.52;;;0.90;;
28848;SDS011;15981;43.292;-2.888;2022-11-15T08:41:25;1.35;;;0.80;;
28848;SDS011;15981;43.292;-2.888;2022-11-15T08:43:52;2.20;;;0.93;;
28848;SDS011;15981;43.292;-2.888;2022-11-15T08:46:17;1.58;;;0.60;;
28848;SDS011;15981;43.292;-2.888;2022-11-15T08:48:44;0.85;;;0.70;;
28848;SDS011;15981;43.292;-2.888;2022-11-15T08:51:10;1.33;;;0.55;;
28848;SDS011;15981;43.292;-2.888;2022-11-15T08:53:35;1.75;;;0.82;;
28848;SDS011;15981;43.292;-2.888;2022-11-15T08:56:01;1.10;;;0.90;;
28848;SDS011;15981;43.292;-2.888;2022-11-15T08:58:27;3.58;;;1.05;;
28848;SDS011;15981;43.292;-2.888;2022-11-15T09:00:53;5.00;;;1.10;;
28848;SDS011;15981;43.292;-2.888;2022-11-15T09:03:19;4.93;;;1.10;;
28848;SDS011;15981;43.292;-2.888;2022-11-15T09:05:45;5.10;;;1.30;;
28848;SDS011;15981;43.292;-2.888;2022-11-15T09:08:10;4.22;;;1.20;;
28848;SDS011;15981;43.292;-2.888;2022-11-15T09:10:38;9.70;;;1.80;;
28848;SDS011;15981;43.292;-2.888;2022-11-15T09:13:03;6.97;;;1.88;;
28848;SDS011;15981;43.292;-2.888;2022-11-15T09:15:29;15.43;;;1.55;;
28848;SDS011;15981;43.292;-2.888;2022-11-15T09:17:57;7.68;;;2.50;;
28848;SDS011;15981;43.292;-2.888;2022-11-15T09:20:23;8.23;;;1.88;;
28848;SDS011;15981;43.292;-2.888;2022-11-15T09:22:49;11.25;;;1.90;;
28848;SDS011;15981;43.292;-2.888;2022-11-15T09:25:15;6.97;;;1.58;;
28848;SDS011;15981;43.292;-2.888;2022-11-15T09:27:40;7.78;;;2.00;;
28848;SDS011;15981;43.292;-2.888;2022-11-15T09:30:06;4.93;;;1.73;;
28848;SDS011;15981;43.292;-2.888;2022-11-15T09:32:32;2.38;;;1.15;;
28848;SDS011;15981;43.292;-2.888;2022-11-15T09:34:58;2.22;;;1.20;;
28848;SDS011;15981;43.292;-2.888;2022-11-15T09:37:23;4.20;;;1.15;;
28848;SDS011;15981;43.292;-2.888;2022-11-15T09:39:49;2.22;;;1.10;;
28848;SDS011;15981;43.292;-2.888;2022-11-15T09:49:53;5.57;;;1.90;;
28848;SDS011;15981;43.292;-2.888;2022-11-15T09:52:20;9.70;;;1.30;;
28848;SDS011;15981;43.292;-2.888;2022-11-15T09:54:47;4.13;;;1.40;;
28848;SDS011;15981;43.292;-2.888;2022-11-15T09:57:15;1.95;;;1.35;;
28848;SDS011;15981;43.292;-2.888;2022-11-15T10:04:48;2.88;;;1.10;;
28848;SDS011;15981;43.292;-2.888;2022-11-15T10:07:22;1.15;;;1.05;;
28848;SDS011;15981;43.292;-2.888;2022-11-15T10:09:58;2.80;;;1.00;;
28848;SDS011;15981;43.292;-2.888;2022-11-15T10:12:27;2.22;;;1.10;;
28848;SDS011;15981;43.292;-2.888;2022-11-15T10:14:59;1.15;;;1.00;;
28848;SDS011;15981;43.292;-2.888;2022-11-15T10:22:38;3.38;;;1.30;;
28848;SDS011;15981;43.292;-2.888;2022-11-15T10:27:33;4.50;;;1.80;;
28848;SDS011;15981;43.292;-2.888;2022-11-15T10:29:59;3.63;;;1.77;;
28848;SDS011;15981;43.292;-2.888;2022-11-15T10:32:25;4.90;;;1.70;;
28848;SDS011;15981;43.292;-2.888;2022-11-15T10:34:51;30.77;;;12.20;;
28848;SDS011;15981;43.292;-2.888;2022-11-15T10:37:29;25.70;;;9.50;;
28848;SDS011;15981;43.292;-2.888;2022-11-15T10:40:28;24.90;;;10.23;;
28848;SDS011;15981;43.292;-2.888;2022-11-15T10:42:47;20.90;;;8.70;;
28848;SDS011;15981;43.292;-2.888;2022-11-15T10:45:27;18.50;;;8.75;;
28848;SDS011;15981;43.292;-2.888;2022-11-15T10:47:53;22.10;;;8.20;;
28848;SDS011;15981;43.292;-2.888;2022-11-15T10:50:37;13.43;;;7.13;;
28848;SDS011;15981;43.292;-2.888;2022-11-15T10:53:03;17.45;;;7.63;;
28848;SDS011;15981;43.292;-2.888;2022-11-15T10:55:30;12.55;;;6.07;;
28848;SDS011;15981;43.292;-2.888;2022-11-15T10:58:41;13.55;;;6.22;;
28848;SDS011;15981;43.292;-2.888;2022-11-15T11:00:46;13.80;;;5.65;;
28848;SDS011;15981;43.292;-2.888;2022-11-15T11:03:34;14.25;;;4.95;;
28848;SDS011;15981;43.292;-2.888;2022-11-15T11:06:05;7.88;;;3.95;;
28848;SDS011;15981;43.292;-2.888;2022-11-15T11:08:31;8.82;;;4.00;;
28848;SDS011;15981;43.292;-2.888;2022-11-15T11:10:58;7.32;;;3.47;;
28848;SDS011;15981;43.292;-2.888;2022-11-15T11:13:28;8.02;;;3.30;;
28848;SDS011;15981;43.292;-2.888;2022-11-15T11:16:09;6.65;;;3.08;;
28848;SDS011;15981;43.292;-2.888;2022-11-15T11:26:56;7.63;;;3.33;;
28848;SDS011;15981;43.292;-2.888;2022-11-15T11:32:11;5.68;;;2.97;;
28848;SDS011;15981;43.292;-2.888;2022-11-15T11:37:31;6.35;;;2.20;;
28848;SDS011;15981;43.292;-2.888;2022-11-15T11:42:53;6.53;;;2.53;;
28848;SDS011;15981;43.292;-2.888;2022-11-15T11:50:36;3.72;;;2.20;;
28848;SDS011;15981;43.292;-2.888;2022-11-15T11:55:47;3.00;;;2.10;;
28848;SDS011;15981;43.292;-2.888;2022-11-15T12:03:35;4.10;;;1.75;;
28848;SDS011;15981;43.292;-2.888;2022-11-15T12:06:14;3.70;;;2.40;;
28848;SDS011;15981;43.292;-2.888;2022-11-15T12:08:45;3.83;;;1.90;;
28848;SDS011;15981;43.292;-2.888;2022-11-15T12:14:08;5.20;;;1.90;;
28848;SDS011;15981;43.292;-2.888;2022-11-15T12:16:36;5.15;;;1.88;;
28848;SDS011;15981;43.292;-2.888;2022-11-15T12:19:04;6.25;;;2.40;;
28848;SDS011;15981;43.292;-2.888;2022-11-15T12:24:18;2.58;;;1.90;;
28848;SDS011;15981;43.292;-2.888;2022-11-15T12:26:47;5.43;;;3.40;;
28848;SDS011;15981;43.292;-2.888;2022-11-15T12:29:25;8.20;;;4.25;;
28848;SDS011;15981;43.292;-2.888;2022-11-15T12:31:53;4.75;;;2.80;;
28848;SDS011;15981;43.292;-2.888;2022-11-15T12:36:49;6.70;;;4.47;;
28848;SDS011;15981;43.292;-2.888;2022-11-15T12:39:15;15.70;;;7.22;;
28848;SDS011;15981;43.292;-2.888;2022-11-15T12:42:34;10.88;;;6.72;;
28848;SDS011;15981;43.292;-2.888;2022-11-15T12:59:53;12.38;;;6.63;;
28848;SDS011;15981;43.292;-2.888;2022-11-15T13:02:36;7.95;;;4.60;;
28848;SDS011;15981;43.292;-2.888;2022-11-15T13:17:48;7.65;;;3.63;;
28848;SDS011;15981;43.292;-2.888;2022-11-15T13:27:51;7.50;;;3.53;;
28848;SDS011;15981;43.292;-2.888;2022-11-15T13:30:21;7.13;;;2.45;;
28848;SDS011;15981;43.292;-2.888;2022-11-15T13:32:48;3.90;;;2.25;;
28848;SDS011;15981;43.292;-2.888;2022-11-15T13:35:23;7.00;;;2.60;;
28848;SDS011;15981;43.292;-2.888;2022-11-15T13:37:49;8.50;;;3.00;;
28848;SDS011;15981;43.292;-2.888;2022-11-15T13:40:18;7.50;;;2.60;;
28848;SDS011;15981;43.292;-2.888;2022-11-15T13:42:45;6.57;;;2.65;;
28848;SDS011;15981;43.292;-2.888;2022-11-15T13:45:12;8.57;;;2.90;;
28848;SDS011;15981;43.292;-2.888;2022-11-15T13:47:39;5.85;;;2.50;;
28848;SDS011;15981;43.292;-2.888;2022-11-15T13:50:04;9.95;;;3.00;;
28848;SDS011;15981;43.292;-2.888;2022-11-15T13:52:31;8.65;;;2.88;;
28848;SDS011;15981;43.292;-2.888;2022-11-15T13:54:59;5.65;;;2.60;;
28848;SDS011;15981;43.292;-2.888;2022-11-15T13:57:27;3.13;;;2.15;;
28848;SDS011;15981;43.292;-2.888;2022-11-15T14:02:41;7.05;;;2.30;;
28848;SDS011;15981;43.292;-2.888;2022-11-15T14:05:14;7.70;;;2.30;;
28848;SDS011;15981;43.292;-2.888;2022-11-15T14:07:40;5.40;;;1.92;;
28848;SDS011;15981;43.292;-2.888;2022-11-15T14:12:52;3.63;;;1.65;;
28848;SDS011;15981;43.292;-2.888;2022-11-15T14:15:23;4.82;;;1.85;;
28848;SDS011;15981;43.292;-2.888;2022-11-15T14:17:50;5.13;;;2.08;;
28848;SDS011;15981;43.292;-2.888;2022-11-15T14:20:20;4.95;;;2.10;;
28848;SDS011;15981;43.292;-2.888;2022-11-15T14:22:55;3.35;;;1.60;;
28848;SDS011;15981;43.292;-2.888;2022-11-15T14:25:25;5.57;;;1.75;;
28848;SDS011;15981;43.292;-2.888;2022-11-15T14:28:10;4.07;;;1.98;;
28848;SDS011;15981;43.292;-2.888;2022-11-15T14:30:37;3.22;;;1.30;;
28848;SDS011;15981;43.292;-2.888;2022-11-15T14:33:16;2.30;;;1.30;;
28848;SDS011;15981;43.292;-2.888;2022-11-15T14:35:42;3.22;;;1.27;;
28848;SDS011;15981;43.292;-2.888;2022-11-15T14:38:09;6.03;;;1.77;;
28848;SDS011;15981;43.292;-2.888;2022-11-15T14:40:34;4.00;;;1.33;;
28848;SDS011;15981;43.292;-2.888;2022-11-15T14:43:00;5.78;;;1.70;;
28848;SDS011;15981;43.292;-2.888;2022-11-15T14:45:26;4.82;;;1.70;;
28848;SDS011;15981;43.292;-2.888;2022-11-15T14:47:52;4.70;;;1.65;;
28848;SDS011;15981;43.292;-2.888;2022-11-15T14:50:19;5.95;;;1.90;;
28848;SDS011;15981;43.292;-2.888;2022-11-15T14:52:45;4.65;;;1.90;;
28848;SDS011;15981;43.292;-2.888;2022-11-15T14:57:54;3.63;;;1.48;;
28848;SDS011;15981;43.292;-2.888;2022-11-15T15:00:20;4.43;;;1.50;;
28848;SDS011;15981;43.292;-2.888;2022-11-15T15:02:46;4.72;;;1.65;;
28848;SDS011;15981;43.292;-2.888;2022-11-15T15:05:13;6.07;;;1.83;;
28848;SDS011;15981;43.292;-2.888;2022-11-15T15:07:39;4.35;;;1.70;;
28848;SDS011;15981;43.292;-2.888;2022-11-15T15:10:04;6.18;;;1.60;;
28848;SDS011;15981;43.292;-2.888;2022-11-15T15:12:30;3.83;;;1.63;;
28848;SDS011;15981;43.292;-2.888;2022-11-15T15:14:56;4.68;;;2.05;;
28848;SDS011;15981;43.292;-2.888;2022-11-15T15:17:22;7.97;;;2.25;;
28848;SDS011;15981;43.292;-2.888;2022-11-15T15:19:47;7.82;;;2.70;;
28848;SDS011;15981;43.292;-2.888;2022-11-15T15:22:14;10.75;;;2.42;;
28848;SDS011;15981;43.292;-2.888;2022-11-15T15:24:41;6.50;;;2.63;;
28848;SDS011;15981;43.292;-2.888;2022-11-15T15:27:07;7.07;;;2.60;;
28848;SDS011;15981;43.292;-2.888;2022-11-15T15:29:32;6.80;;;2.10;;
28848;SDS011;15981;43.292;-2.888;2022-11-15T15:31:58;7.22;;;2.38;;
28848;SDS011;15981;43.292;-2.888;2022-11-15T15:34:25;6.43;;;2.08;;
28848;SDS011;15981;43.292;-2.888;2022-11-15T15:37:06;6.60;;;1.63;;
28848;SDS011;15981;43.292;-2.888;2022-11-15T15:39:32;5.90;;;1.65;;
28848;SDS011;15981;43.292;-2.888;2022-11-15T15:41:58;9.57;;;2.20;;
28848;SDS011;15981;43.292;-2.888;2022-11-15T15:44:23;3.90;;;1.73;;
28848;SDS011;15981;43.292;-2.888;2022-11-15T15:46:49;4.45;;;1.92;;
28848;SDS011;15981;43.292;-2.888;2022-11-15T15:49:15;5.88;;;1.77;;
28848;SDS011;15981;43.292;-2.888;2022-11-15T15:51:41;3.88;;;1.73;;
28848;SDS011;15981;43.292;-2.888;2022-11-15T15:54:06;6.68;;;2.40;;
28848;SDS011;15981;43.292;-2.888;2022-11-15T15:56:32;3.78;;;1.88;;
28848;SDS011;15981;43.292;-2.888;2022-11-15T15:58:58;5.65;;;2.10;;
28848;SDS011;15981;43.292;-2.888;2022-11-15T16:01:23;7.30;;;2.20;;
28848;SDS011;15981;43.292;-2.888;2022-11-15T16:03:50;5.32;;;2.17;;
28848;SDS011;15981;43.292;-2.888;2022-11-15T16:09:01;7.75;;;2.38;;
28848;SDS011;15981;43.292;-2.888;2022-11-15T16:11:26;7.75;;;2.60;;
28848;SDS011;15981;43.292;-2.888;2022-11-15T16:13:52;7.05;;;2.88;;
28848;SDS011;15981;43.292;-2.888;2022-11-15T16:16:18;6.43;;;2.30;;
28848;SDS011;15981;43.292;-2.888;2022-11-15T16:18:44;4.88;;;2.40;;
28848;SDS011;15981;43.292;-2.888;2022-11-15T16:21:10;8.48;;;2.78;;
28848;SDS011;15981;43.292;-2.888;2022-11-15T16:23:36;7.10;;;3.13;;
28848;SDS011;15981;43.292;-2.888;2022-11-15T16:26:02;6.55;;;2.90;;
28848;SDS011;15981;43.292;-2.888;2022-11-15T16:28:29;7.43;;;3.10;;
28848;SDS011;15981;43.292;-2.888;2022-11-15T16:30:59;9.65;;;2.65;;
28848;SDS011;15981;43.292;-2.888;2022-11-15T16:33:26;9.20;;;2.88;;
28848;SDS011;15981;43.292;-2.888;2022-11-15T16:35:51;10.23;;;3.45;;
28848;SDS011;15981;43.292;-2.888;2022-11-15T16:38:17;5.88;;;3.08;;
28848;SDS011;15981;43.292;-2.888;2022-11-15T16:40:43;6.43;;;2.70;;
28848;SDS011;15981;43.292;-2.888;2022-11-15T16:43:09;7.93;;;3.00;;
28848;SDS011;15981;43.292;-2.888;2022-11-15T16:45:35;11.65;;;3.45;;
28848;SDS011;15981;43.292;-2.888;2022-11-15T16:48:00;8.38;;;3.05;;
28848;SDS011;15981;43.292;-2.888;2022-11-15T16:50:27;7.25;;;2.97;;
28848;SDS011;15981;43.292;-2.888;2022-11-15T16:52:54;5.13;;;2.60;;
28848;SDS011;15981;43.292;-2.888;2022-11-15T16:55:20;4.57;;;2.78;;
28848;SDS011;15981;43.292;-2.888;2022-11-15T16:57:46;4.93;;;2.35;;
28848;SDS011;15981;43.292;-2.888;2022-11-15T17:00:12;8.93;;;2.95;;
28848;SDS011;15981;43.292;-2.888;2022-11-15T17:02:42;7.45;;;2.63;;
28848;SDS011;15981;43.292;-2.888;2022-11-15T17:05:08;6.78;;;2.55;;
28848;SDS011;15981;43.292;-2.888;2022-11-15T17:07:34;5.85;;;2.40;;